sensor_id;sensor_type;location;lat;lon;timestamp;P1;durP1;ratioP1;P2;durP2;ratioP2
2031;SDS011;27625;50.422;7.944;2022-12-18T00:05:02;52.63;;;27.08;;
2031;SDS011;27625;50.422;7.944;2022-12-18T00:07:29;50.15;;;27.05;;
2031;SDS011;27625;50.422;7.944;2022-12-18T00:09:55;58.28;;;26.45;;
2031;SDS011;27625;50.422;7.944;2022-12-18T00:12:22;53.63;;;27.10;;
2031;SDS011;27625;50.422;7.944;2022-12-18T00:14:48;48.30;;;22.92;;
2031;SDS011;27625;50.422;7.944;2022-12-18T00:17:15;52.97;;;25.98;;
2031;SDS011;27625;50.422;7.944;2022-12-18T00:19:44;58.42;;;27.38;;
2031;SDS011;27625;50.422;7.944;2022-12-18T00:22:12;51.05;;;25.58;;
2031;SDS011;27625;50.422;7.944;2022-12-18T00:24:44;50.75;;;25.67;;
2031;SDS011;27625;50.422;7.944;2022-12-18T00:29:42;41.25;;;22.20;;
2031;SDS011;27625;50.422;7.944;2022-12-18T00:32:09;49.05;;;24.90;;
2031;SDS011;27625;50.422;7.944;2022-12-18T00:34:36;46.90;;;23.20;;
2031;SDS011;27625;50.422;7.944;2022-12-18T00:37:04;49.25;;;22.55;;
2031;SDS011;27625;50.422;7.944;2022-12-18T00:39:31;42.97;;;22.42;;
2031;SDS011;27625;50.422;7.944;2022-12-18T00:42:05;42.90;;;23.45;;
2031;SDS011;27625;50.422;7.944;2022-12-18T00:44:54;47.60;;;22.20;;
2031;SDS011;27625;50.422;7.944;2022-12-18T00:47:21;46.85;;;23.90;;
2031;SDS011;27625;50.422;7.944;2022-12-18T00:49:53;42.50;;;23.85;;
2031;SDS011;27625;50.422;7.944;2022-12-18T00:52:21;46.35;;;23.73;;
2031;SDS011;27625;50.422;7.944;2022-12-18T00:54:48;42.97;;;21.48;;
2031;SDS011;27625;50.422;7.944;2022-12-18T00:57:14;36.67;;;20.77;;
2031;SDS011;27625;50.422;7.944;2022-12-18T00:59:41;45.30;;;23.48;;
2031;SDS011;27625;50.422;7.944;2022-12-18T01:02:10;51.30;;;24.02;;
2031;SDS011;27625;50.422;7.944;2022-12-18T01:04:41;47.10;;;23.40;;
2031;SDS011;27625;50.422;7.944;2022-12-18T01:07:08;44.47;;;24.17;;
2031;SDS011;27625;50.422;7.944;2022-12-18T01:09:36;46.50;;;23.30;;
2031;SDS011;27625;50.422;7.944;2022-12-18T01:12:03;45.72;;;22.98;;
2031;SDS011;27625;50.422;7.944;2022-12-18T01:14:30;41.75;;;22.20;;
2031;SDS011;27625;50.422;7.944;2022-12-18T01:16:57;46.72;;;22.45;;
2031;SDS011;27625;50.422;7.944;2022-12-18T01:19:24;37.92;;;22.90;;
2031;SDS011;27625;50.422;7.944;2022-12-18T01:21:51;54.78;;;26.10;;
2031;SDS011;27625;50.422;7.944;2022-12-18T01:24:18;40.53;;;21.85;;
2031;SDS011;27625;50.422;7.944;2022-12-18T01:26:46;50.58;;;24.05;;
2031;SDS011;27625;50.422;7.944;2022-12-18T01:29:12;48.72;;;23.55;;
2031;SDS011;27625;50.422;7.944;2022-12-18T01:31:39;48.58;;;24.17;;
2031;SDS011;27625;50.422;7.944;2022-12-18T01:34:06;51.03;;;22.20;;
2031;SDS011;27625;50.422;7.944;2022-12-18T01:36:33;44.80;;;23.65;;
2031;SDS011;27625;50.422;7.944;2022-12-18T01:39:04;41.78;;;21.38;;
2031;SDS011;27625;50.422;7.944;2022-12-18T01:41:32;46.97;;;23.55;;
2031;SDS011;27625;50.422;7.944;2022-12-18T01:47:15;49.83;;;24.17;;
2031;SDS011;27625;50.422;7.944;2022-12-18T01:49:45;41.22;;;21.55;;
2031;SDS011;27625;50.422;7.944;2022-12-18T01:52:11;47.33;;;21.17;;
2031;SDS011;27625;50.422;7.944;2022-12-18T01:54:48;41.55;;;22.70;;
2031;SDS011;27625;50.422;7.944;2022-12-18T01:57:16;45.47;;;20.35;;
2031;SDS011;27625;50.422;7.944;2022-12-18T01:59:43;43.17;;;21.45;;
2031;SDS011;27625;50.422;7.944;2022-12-18T02:02:11;48.88;;;22.75;;
2031;SDS011;27625;50.422;7.944;2022-12-18T02:04:40;44.97;;;21.95;;
2031;SDS011;27625;50.422;7.944;2022-12-18T02:07:09;42.40;;;23.40;;
2031;SDS011;27625;50.422;7.944;2022-12-18T02:09:45;44.97;;;23.42;;
2031;SDS011;27625;50.422;7.944;2022-12-18T02:12:16;49.42;;;24.05;;
2031;SDS011;27625;50.422;7.944;2022-12-18T02:14:54;47.97;;;23.80;;
2031;SDS011;27625;50.422;7.944;2022-12-18T02:17:22;44.03;;;22.52;;
2031;SDS011;27625;50.422;7.944;2022-12-18T02:20:01;41.78;;;22.10;;
2031;SDS011;27625;50.422;7.944;2022-12-18T02:22:36;38.30;;;21.85;;
2031;SDS011;27625;50.422;7.944;2022-12-18T02:25:13;45.67;;;23.35;;
2031;SDS011;27625;50.422;7.944;2022-12-18T02:27:50;40.45;;;22.08;;
2031;SDS011;27625;50.422;7.944;2022-12-18T02:30:19;44.05;;;21.27;;
2031;SDS011;27625;50.422;7.944;2022-12-18T02:32:47;41.88;;;23.42;;
2031;SDS011;27625;50.422;7.944;2022-12-18T02:35:19;40.03;;;21.20;;
2031;SDS011;27625;50.422;7.944;2022-12-18T02:37:49;43.60;;;21.30;;
2031;SDS011;27625;50.422;7.944;2022-12-18T02:40:22;42.22;;;20.92;;
2031;SDS011;27625;50.422;7.944;2022-12-18T02:42:52;38.92;;;22.10;;
2031;SDS011;27625;50.422;7.944;2022-12-18T02:45:18;45.33;;;21.52;;
2031;SDS011;27625;50.422;7.944;2022-12-18T02:47:45;37.97;;;21.42;;
2031;SDS011;27625;50.422;7.944;2022-12-18T02:50:16;41.63;;;21.30;;
2031;SDS011;27625;50.422;7.944;2022-12-18T02:52:46;45.42;;;21.25;;
2031;SDS011;27625;50.422;7.944;2022-12-18T02:55:23;45.25;;;24.10;;
2031;SDS011;27625;50.422;7.944;2022-12-18T02:57:56;35.85;;;21.08;;
2031;SDS011;27625;50.422;7.944;2022-12-18T03:00:27;46.13;;;22.55;;
2031;SDS011;27625;50.422;7.944;2022-12-18T03:05:28;41.92;;;21.60;;
2031;SDS011;27625;50.422;7.944;2022-12-18T03:07:57;41.80;;;22.35;;
2031;SDS011;27625;50.422;7.944;2022-12-18T03:10:29;43.03;;;21.25;;
2031;SDS011;27625;50.422;7.944;2022-12-18T03:13:02;46.25;;;24.73;;
2031;SDS011;27625;50.422;7.944;2022-12-18T03:15:34;45.35;;;22.95;;
2031;SDS011;27625;50.422;7.944;2022-12-18T03:18:03;44.50;;;22.85;;
2031;SDS011;27625;50.422;7.944;2022-12-18T03:20:34;47.38;;;22.90;;
2031;SDS011;27625;50.422;7.944;2022-12-18T03:23:02;50.40;;;22.38;;
2031;SDS011;27625;50.422;7.944;2022-12-18T03:25:32;41.95;;;21.02;;
2031;SDS011;27625;50.422;7.944;2022-12-18T03:28:02;53.17;;;23.92;;
2031;SDS011;27625;50.422;7.944;2022-12-18T03:30:29;44.75;;;23.33;;
2031;SDS011;27625;50.422;7.944;2022-12-18T03:32:58;45.67;;;24.65;;
2031;SDS011;27625;50.422;7.944;2022-12-18T03:35:31;46.22;;;23.75;;
2031;SDS011;27625;50.422;7.944;2022-12-18T03:38:01;53.33;;;23.20;;
2031;SDS011;27625;50.422;7.944;2022-12-18T03:40:29;45.25;;;22.15;;
2031;SDS011;27625;50.422;7.944;2022-12-18T03:43:01;45.05;;;22.85;;
2031;SDS011;27625;50.422;7.944;2022-12-18T03:45:35;46.40;;;22.15;;
2031;SDS011;27625;50.422;7.944;2022-12-18T03:48:06;43.30;;;22.55;;
2031;SDS011;27625;50.422;7.944;2022-12-18T03:50:37;41.85;;;21.70;;
2031;SDS011;27625;50.422;7.944;2022-12-18T03:53:10;40.30;;;20.95;;
2031;SDS011;27625;50.422;7.944;2022-12-18T03:55:43;39.78;;;19.98;;
2031;SDS011;27625;50.422;7.944;2022-12-18T03:58:19;45.38;;;21.23;;
2031;SDS011;27625;50.422;7.944;2022-12-18T04:00:51;38.25;;;21.73;;
2031;SDS011;27625;50.422;7.944;2022-12-18T04:03:21;40.80;;;20.25;;
2031;SDS011;27625;50.422;7.944;2022-12-18T04:05:49;45.75;;;22.77;;
2031;SDS011;27625;50.422;7.944;2022-12-18T04:08:17;41.92;;;22.02;;
2031;SDS011;27625;50.422;7.944;2022-12-18T04:10:45;46.50;;;22.63;;
2031;SDS011;27625;50.422;7.944;2022-12-18T04:13:22;36.45;;;19.95;;
2031;SDS011;27625;50.422;7.944;2022-12-18T04:18:25;34.58;;;19.63;;
2031;SDS011;27625;50.422;7.944;2022-12-18T04:20:54;41.08;;;23.60;;
2031;SDS011;27625;50.422;7.944;2022-12-18T04:23:28;40.20;;;21.95;;
2031;SDS011;27625;50.422;7.944;2022-12-18T04:25:55;37.38;;;20.27;;
2031;SDS011;27625;50.422;7.944;2022-12-18T04:28:29;44.97;;;22.25;;
2031;SDS011;27625;50.422;7.944;2022-12-18T04:30:57;44.30;;;22.83;;
2031;SDS011;27625;50.422;7.944;2022-12-18T04:33:25;39.90;;;21.80;;
2031;SDS011;27625;50.422;7.944;2022-12-18T04:35:53;40.95;;;20.80;;
2031;SDS011;27625;50.422;7.944;2022-12-18T04:38:26;51.17;;;20.92;;
2031;SDS011;27625;50.422;7.944;2022-12-18T04:40:52;38.72;;;20.88;;
2031;SDS011;27625;50.422;7.944;2022-12-18T04:43:19;39.17;;;20.92;;
2031;SDS011;27625;50.422;7.944;2022-12-18T04:48:27;38.88;;;20.88;;
2031;SDS011;27625;50.422;7.944;2022-12-18T04:50:55;41.80;;;21.15;;
2031;SDS011;27625;50.422;7.944;2022-12-18T04:53:33;42.42;;;20.65;;
2031;SDS011;27625;50.422;7.944;2022-12-18T04:56:03;42.92;;;20.85;;
2031;SDS011;27625;50.422;7.944;2022-12-18T04:58:31;39.17;;;19.92;;
2031;SDS011;27625;50.422;7.944;2022-12-18T05:00:59;37.28;;;20.40;;
2031;SDS011;27625;50.422;7.944;2022-12-18T05:03:28;40.38;;;21.15;;
2031;SDS011;27625;50.422;7.944;2022-12-18T05:06:04;38.25;;;19.63;;
2031;SDS011;27625;50.422;7.944;2022-12-18T05:08:32;39.15;;;18.48;;
2031;SDS011;27625;50.422;7.944;2022-12-18T05:10:58;37.55;;;20.20;;
2031;SDS011;27625;50.422;7.944;2022-12-18T05:13:27;38.20;;;19.92;;
2031;SDS011;27625;50.422;7.944;2022-12-18T05:15:54;36.00;;;18.98;;
2031;SDS011;27625;50.422;7.944;2022-12-18T05:18:22;35.10;;;19.17;;
2031;SDS011;27625;50.422;7.944;2022-12-18T05:20:50;40.38;;;18.83;;
2031;SDS011;27625;50.422;7.944;2022-12-18T05:23:21;39.80;;;20.48;;
2031;SDS011;27625;50.422;7.944;2022-12-18T05:25:50;36.00;;;19.23;;
2031;SDS011;27625;50.422;7.944;2022-12-18T05:28:19;33.92;;;19.50;;
2031;SDS011;27625;50.422;7.944;2022-12-18T05:30:47;33.70;;;20.42;;
2031;SDS011;27625;50.422;7.944;2022-12-18T05:33:17;38.30;;;21.05;;
2031;SDS011;27625;50.422;7.944;2022-12-18T05:35:49;40.85;;;21.90;;
2031;SDS011;27625;50.422;7.944;2022-12-18T05:38:16;41.30;;;20.77;;
2031;SDS011;27625;50.422;7.944;2022-12-18T05:40:43;41.15;;;21.73;;
2031;SDS011;27625;50.422;7.944;2022-12-18T05:43:09;38.25;;;20.95;;
2031;SDS011;27625;50.422;7.944;2022-12-18T05:45:39;49.25;;;23.17;;
2031;SDS011;27625;50.422;7.944;2022-12-18T05:48:06;50.53;;;23.33;;
2031;SDS011;27625;50.422;7.944;2022-12-18T05:50:35;48.38;;;25.35;;
2031;SDS011;27625;50.422;7.944;2022-12-18T05:53:05;57.33;;;26.75;;
2031;SDS011;27625;50.422;7.944;2022-12-18T05:55:32;42.15;;;22.17;;
2031;SDS011;27625;50.422;7.944;2022-12-18T05:58:00;44.08;;;23.58;;
2031;SDS011;27625;50.422;7.944;2022-12-18T06:00:27;46.38;;;22.42;;
2031;SDS011;27625;50.422;7.944;2022-12-18T06:02:55;49.22;;;23.92;;
2031;SDS011;27625;50.422;7.944;2022-12-18T06:05:21;42.47;;;21.67;;
2031;SDS011;27625;50.422;7.944;2022-12-18T06:07:48;44.47;;;20.33;;
2031;SDS011;27625;50.422;7.944;2022-12-18T06:10:17;42.45;;;22.25;;
2031;SDS011;27625;50.422;7.944;2022-12-18T06:12:43;41.70;;;21.85;;
2031;SDS011;27625;50.422;7.944;2022-12-18T06:15:10;40.22;;;23.33;;
2031;SDS011;27625;50.422;7.944;2022-12-18T06:17:37;40.00;;;22.30;;
2031;SDS011;27625;50.422;7.944;2022-12-18T06:20:04;39.08;;;21.13;;
2031;SDS011;27625;50.422;7.944;2022-12-18T06:22:32;34.63;;;19.73;;
2031;SDS011;27625;50.422;7.944;2022-12-18T06:24:58;40.53;;;21.25;;
2031;SDS011;27625;50.422;7.944;2022-12-18T06:27:26;36.85;;;21.17;;
2031;SDS011;27625;50.422;7.944;2022-12-18T06:29:53;38.35;;;21.83;;
2031;SDS011;27625;50.422;7.944;2022-12-18T06:32:21;34.50;;;20.35;;
2031;SDS011;27625;50.422;7.944;2022-12-18T06:34:49;35.55;;;20.73;;
2031;SDS011;27625;50.422;7.944;2022-12-18T06:37:17;31.85;;;19.95;;
2031;SDS011;27625;50.422;7.944;2022-12-18T06:39:45;33.83;;;19.13;;
2031;SDS011;27625;50.422;7.944;2022-12-18T06:42:11;37.22;;;18.08;;
2031;SDS011;27625;50.422;7.944;2022-12-18T06:44:39;33.45;;;18.70;;
2031;SDS011;27625;50.422;7.944;2022-12-18T06:47:06;35.97;;;19.98;;
2031;SDS011;27625;50.422;7.944;2022-12-18T06:49:32;37.50;;;19.08;;
2031;SDS011;27625;50.422;7.944;2022-12-18T06:51:59;35.15;;;18.60;;
2031;SDS011;27625;50.422;7.944;2022-12-18T06:54:26;34.83;;;19.40;;
2031;SDS011;27625;50.422;7.944;2022-12-18T06:56:53;29.27;;;18.60;;
2031;SDS011;27625;50.422;7.944;2022-12-18T06:59:19;38.25;;;18.63;;
2031;SDS011;27625;50.422;7.944;2022-12-18T07:01:47;38.15;;;19.00;;
2031;SDS011;27625;50.422;7.944;2022-12-18T07:04:19;34.10;;;19.42;;
2031;SDS011;27625;50.422;7.944;2022-12-18T07:06:47;36.65;;;20.50;;
2031;SDS011;27625;50.422;7.944;2022-12-18T07:09:15;28.70;;;20.33;;
2031;SDS011;27625;50.422;7.944;2022-12-18T07:11:42;26.65;;;16.67;;
2031;SDS011;27625;50.422;7.944;2022-12-18T07:14:10;34.80;;;20.73;;
2031;SDS011;27625;50.422;7.944;2022-12-18T07:16:44;30.95;;;18.70;;
2031;SDS011;27625;50.422;7.944;2022-12-18T07:19:12;32.80;;;20.00;;
2031;SDS011;27625;50.422;7.944;2022-12-18T07:21:41;39.95;;;21.33;;
2031;SDS011;27625;50.422;7.944;2022-12-18T07:24:08;35.30;;;20.52;;
2031;SDS011;27625;50.422;7.944;2022-12-18T07:26:34;40.17;;;20.35;;
2031;SDS011;27625;50.422;7.944;2022-12-18T07:29:02;31.50;;;17.38;;
2031;SDS011;27625;50.422;7.944;2022-12-18T07:31:29;32.97;;;17.98;;
2031;SDS011;27625;50.422;7.944;2022-12-18T07:33:56;41.72;;;21.42;;
2031;SDS011;27625;50.422;7.944;2022-12-18T07:36:25;28.70;;;18.95;;
2031;SDS011;27625;50.422;7.944;2022-12-18T07:38:52;27.92;;;19.02;;
2031;SDS011;27625;50.422;7.944;2022-12-18T07:41:18;36.20;;;20.98;;
2031;SDS011;27625;50.422;7.944;2022-12-18T07:43:45;40.38;;;19.58;;
2031;SDS011;27625;50.422;7.944;2022-12-18T07:46:13;36.70;;;18.80;;
2031;SDS011;27625;50.422;7.944;2022-12-18T07:48:40;38.03;;;22.05;;
2031;SDS011;27625;50.422;7.944;2022-12-18T07:51:08;37.25;;;19.15;;
2031;SDS011;27625;50.422;7.944;2022-12-18T07:53:36;35.90;;;19.13;;
2031;SDS011;27625;50.422;7.944;2022-12-18T07:56:04;44.00;;;21.90;;
2031;SDS011;27625;50.422;7.944;2022-12-18T07:58:32;35.75;;;22.27;;
2031;SDS011;27625;50.422;7.944;2022-12-18T08:01:02;38.88;;;26.58;;
2031;SDS011;27625;50.422;7.944;2022-12-18T08:03:29;38.08;;;22.05;;
2031;SDS011;27625;50.422;7.944;2022-12-18T08:05:57;31.73;;;19.40;;
2031;SDS011;27625;50.422;7.944;2022-12-18T08:08:27;42.15;;;32.95;;
2031;SDS011;27625;50.422;7.944;2022-12-18T08:10:55;32.92;;;23.00;;
2031;SDS011;27625;50.422;7.944;2022-12-18T08:13:23;32.20;;;19.33;;
2031;SDS011;27625;50.422;7.944;2022-12-18T08:15:55;37.42;;;24.65;;
2031;SDS011;27625;50.422;7.944;2022-12-18T08:18:24;42.45;;;26.45;;
2031;SDS011;27625;50.422;7.944;2022-12-18T08:20:50;35.60;;;21.58;;
2031;SDS011;27625;50.422;7.944;2022-12-18T08:23:17;35.47;;;19.80;;
2031;SDS011;27625;50.422;7.944;2022-12-18T08:25:46;35.15;;;20.75;;
2031;SDS011;27625;50.422;7.944;2022-12-18T08:28:14;36.88;;;20.27;;
2031;SDS011;27625;50.422;7.944;2022-12-18T08:30:41;34.22;;;20.65;;
2031;SDS011;27625;50.422;7.944;2022-12-18T08:33:08;34.55;;;21.35;;
2031;SDS011;27625;50.422;7.944;2022-12-18T08:35:35;37.88;;;20.17;;
2031;SDS011;27625;50.422;7.944;2022-12-18T08:38:04;32.75;;;19.52;;
2031;SDS011;27625;50.422;7.944;2022-12-18T08:40:34;39.58;;;21.67;;
2031;SDS011;27625;50.422;7.944;2022-12-18T08:43:02;35.15;;;20.05;;
2031;SDS011;27625;50.422;7.944;2022-12-18T08:45:48;37.33;;;20.67;;
2031;SDS011;27625;50.422;7.944;2022-12-18T08:48:15;36.20;;;21.52;;
2031;SDS011;27625;50.422;7.944;2022-12-18T08:50:41;36.25;;;22.05;;
2031;SDS011;27625;50.422;7.944;2022-12-18T08:53:08;37.33;;;22.88;;
2031;SDS011;27625;50.422;7.944;2022-12-18T08:55:36;50.00;;;27.75;;
2031;SDS011;27625;50.422;7.944;2022-12-18T08:58:03;36.55;;;23.20;;
2031;SDS011;27625;50.422;7.944;2022-12-18T09:00:30;42.83;;;21.15;;
2031;SDS011;27625;50.422;7.944;2022-12-18T09:02:58;35.50;;;21.55;;
2031;SDS011;27625;50.422;7.944;2022-12-18T09:05:24;36.33;;;20.75;;
2031;SDS011;27625;50.422;7.944;2022-12-18T09:07:57;34.38;;;20.52;;
2031;SDS011;27625;50.422;7.944;2022-12-18T09:10:26;36.55;;;20.30;;
2031;SDS011;27625;50.422;7.944;2022-12-18T09:13:06;40.67;;;22.65;;
2031;SDS011;27625;50.422;7.944;2022-12-18T09:15:33;36.28;;;20.17;;
2031;SDS011;27625;50.422;7.944;2022-12-18T09:18:03;37.65;;;21.00;;
2031;SDS011;27625;50.422;7.944;2022-12-18T09:20:31;33.83;;;19.23;;
2031;SDS011;27625;50.422;7.944;2022-12-18T09:22:58;30.88;;;20.80;;
2031;SDS011;27625;50.422;7.944;2022-12-18T09:25:26;28.10;;;18.08;;
2031;SDS011;27625;50.422;7.944;2022-12-18T09:27:57;36.22;;;20.70;;
2031;SDS011;27625;50.422;7.944;2022-12-18T09:30:24;39.63;;;21.05;;
2031;SDS011;27625;50.422;7.944;2022-12-18T09:32:51;39.38;;;20.40;;
2031;SDS011;27625;50.422;7.944;2022-12-18T09:35:22;32.00;;;19.25;;
2031;SDS011;27625;50.422;7.944;2022-12-18T09:37:52;34.47;;;20.23;;
2031;SDS011;27625;50.422;7.944;2022-12-18T09:40:20;36.38;;;22.15;;
2031;SDS011;27625;50.422;7.944;2022-12-18T09:42:49;36.00;;;22.73;;
2031;SDS011;27625;50.422;7.944;2022-12-18T09:45:18;35.58;;;22.60;;
2031;SDS011;27625;50.422;7.944;2022-12-18T09:47:45;37.53;;;21.25;;
2031;SDS011;27625;50.422;7.944;2022-12-18T09:50:16;32.97;;;22.25;;
2031;SDS011;27625;50.422;7.944;2022-12-18T09:52:48;33.88;;;20.63;;
2031;SDS011;27625;50.422;7.944;2022-12-18T09:55:19;38.90;;;22.13;;
2031;SDS011;27625;50.422;7.944;2022-12-18T09:57:49;36.22;;;20.70;;
2031;SDS011;27625;50.422;7.944;2022-12-18T10:00:19;31.10;;;19.83;;
2031;SDS011;27625;50.422;7.944;2022-12-18T10:02:47;39.40;;;22.83;;
2031;SDS011;27625;50.422;7.944;2022-12-18T10:05:15;39.83;;;21.33;;
2031;SDS011;27625;50.422;7.944;2022-12-18T10:07:50;37.30;;;23.00;;
2031;SDS011;27625;50.422;7.944;2022-12-18T10:10:26;35.72;;;21.70;;
2031;SDS011;27625;50.422;7.944;2022-12-18T10:13:00;34.20;;;21.10;;
2031;SDS011;27625;50.422;7.944;2022-12-18T10:15:32;37.00;;;22.40;;
2031;SDS011;27625;50.422;7.944;2022-12-18T10:18:05;36.15;;;23.17;;
2031;SDS011;27625;50.422;7.944;2022-12-18T10:20:41;36.60;;;21.40;;
2031;SDS011;27625;50.422;7.944;2022-12-18T10:23:14;36.78;;;20.63;;
2031;SDS011;27625;50.422;7.944;2022-12-18T10:25:48;33.50;;;20.25;;
2031;SDS011;27625;50.422;7.944;2022-12-18T10:28:18;33.83;;;21.15;;
2031;SDS011;27625;50.422;7.944;2022-12-18T10:30:46;36.47;;;21.65;;
2031;SDS011;27625;50.422;7.944;2022-12-18T10:33:13;35.20;;;21.83;;
2031;SDS011;27625;50.422;7.944;2022-12-18T10:35:43;41.85;;;22.88;;
2031;SDS011;27625;50.422;7.944;2022-12-18T10:38:25;36.40;;;21.90;;
2031;SDS011;27625;50.422;7.944;2022-12-18T10:40:53;35.38;;;20.50;;
2031;SDS011;27625;50.422;7.944;2022-12-18T10:43:22;33.15;;;20.27;;
2031;SDS011;27625;50.422;7.944;2022-12-18T10:46:07;38.63;;;20.73;;
2031;SDS011;27625;50.422;7.944;2022-12-18T10:48:41;40.88;;;24.15;;
2031;SDS011;27625;50.422;7.944;2022-12-18T10:51:19;38.53;;;21.40;;
2031;SDS011;27625;50.422;7.944;2022-12-18T10:53:52;38.88;;;22.02;;
2031;SDS011;27625;50.422;7.944;2022-12-18T10:56:21;37.25;;;24.42;;
2031;SDS011;27625;50.422;7.944;2022-12-18T10:58:55;41.38;;;22.48;;
2031;SDS011;27625;50.422;7.944;2022-12-18T11:01:22;38.35;;;22.85;;
2031;SDS011;27625;50.422;7.944;2022-12-18T11:03:58;36.33;;;23.85;;
2031;SDS011;27625;50.422;7.944;2022-12-18T11:06:26;37.88;;;20.90;;
2031;SDS011;27625;50.422;7.944;2022-12-18T11:08:59;46.97;;;25.15;;
2031;SDS011;27625;50.422;7.944;2022-12-18T11:11:27;39.10;;;23.70;;
2031;SDS011;27625;50.422;7.944;2022-12-18T11:13:57;43.50;;;25.27;;
2031;SDS011;27625;50.422;7.944;2022-12-18T11:16:27;41.85;;;26.08;;
2031;SDS011;27625;50.422;7.944;2022-12-18T11:18:59;44.45;;;27.35;;
2031;SDS011;27625;50.422;7.944;2022-12-18T11:21:44;49.75;;;27.50;;
2031;SDS011;27625;50.422;7.944;2022-12-18T11:24:18;42.30;;;26.03;;
2031;SDS011;27625;50.422;7.944;2022-12-18T11:26:47;37.08;;;23.48;;
2031;SDS011;27625;50.422;7.944;2022-12-18T11:29:16;43.33;;;24.10;;
2031;SDS011;27625;50.422;7.944;2022-12-18T11:31:45;42.78;;;25.10;;
2031;SDS011;27625;50.422;7.944;2022-12-18T11:34:16;47.90;;;26.70;;
2031;SDS011;27625;50.422;7.944;2022-12-18T11:36:49;50.55;;;26.92;;
2031;SDS011;27625;50.422;7.944;2022-12-18T11:39:19;41.40;;;24.10;;
2031;SDS011;27625;50.422;7.944;2022-12-18T11:41:50;42.67;;;24.63;;
2031;SDS011;27625;50.422;7.944;2022-12-18T11:44:38;40.78;;;24.35;;
2031;SDS011;27625;50.422;7.944;2022-12-18T11:47:09;48.70;;;25.83;;
2031;SDS011;27625;50.422;7.944;2022-12-18T11:49:44;43.88;;;26.92;;
2031;SDS011;27625;50.422;7.944;2022-12-18T11:52:14;43.55;;;26.55;;
2031;SDS011;27625;50.422;7.944;2022-12-18T11:54:44;43.67;;;24.23;;
2031;SDS011;27625;50.422;7.944;2022-12-18T11:57:13;48.22;;;27.30;;
2031;SDS011;27625;50.422;7.944;2022-12-18T11:59:44;38.97;;;24.53;;
2031;SDS011;27625;50.422;7.944;2022-12-18T12:02:23;43.00;;;27.08;;
2031;SDS011;27625;50.422;7.944;2022-12-18T12:05:05;45.97;;;26.63;;
2031;SDS011;27625;50.422;7.944;2022-12-18T12:07:48;51.30;;;26.05;;
2031;SDS011;27625;50.422;7.944;2022-12-18T12:13:16;51.83;;;26.70;;
2031;SDS011;27625;50.422;7.944;2022-12-18T12:16:02;41.53;;;26.67;;
2031;SDS011;27625;50.422;7.944;2022-12-18T12:18:40;44.10;;;26.60;;
2031;SDS011;27625;50.422;7.944;2022-12-18T12:21:15;43.70;;;25.83;;
2031;SDS011;27625;50.422;7.944;2022-12-18T12:23:45;47.50;;;28.67;;
2031;SDS011;27625;50.422;7.944;2022-12-18T12:26:18;52.50;;;28.80;;
2031;SDS011;27625;50.422;7.944;2022-12-18T12:28:53;49.75;;;28.00;;
2031;SDS011;27625;50.422;7.944;2022-12-18T12:31:32;44.30;;;26.27;;
2031;SDS011;27625;50.422;7.944;2022-12-18T12:34:09;53.83;;;26.88;;
2031;SDS011;27625;50.422;7.944;2022-12-18T12:36:43;45.90;;;28.13;;
2031;SDS011;27625;50.422;7.944;2022-12-18T12:39:18;53.00;;;29.85;;
2031;SDS011;27625;50.422;7.944;2022-12-18T12:41:48;46.03;;;28.02;;
2031;SDS011;27625;50.422;7.944;2022-12-18T12:44:30;47.47;;;30.27;;
2031;SDS011;27625;50.422;7.944;2022-12-18T12:47:00;42.07;;;28.37;;
2031;SDS011;27625;50.422;7.944;2022-12-18T12:49:31;47.80;;;29.33;;
2031;SDS011;27625;50.422;7.944;2022-12-18T12:52:03;54.70;;;31.00;;
2031;SDS011;27625;50.422;7.944;2022-12-18T12:54:32;47.45;;;28.77;;
2031;SDS011;27625;50.422;7.944;2022-12-18T12:57:08;48.70;;;28.85;;
2031;SDS011;27625;50.422;7.944;2022-12-18T12:59:40;53.33;;;30.45;;
2031;SDS011;27625;50.422;7.944;2022-12-18T13:02:14;50.30;;;28.33;;
2031;SDS011;27625;50.422;7.944;2022-12-18T13:04:46;55.58;;;29.85;;
2031;SDS011;27625;50.422;7.944;2022-12-18T13:07:17;50.45;;;30.10;;
2031;SDS011;27625;50.422;7.944;2022-12-18T13:12:43;55.67;;;31.48;;
2031;SDS011;27625;50.422;7.944;2022-12-18T13:15:25;53.30;;;31.42;;
2031;SDS011;27625;50.422;7.944;2022-12-18T13:18:04;56.73;;;30.40;;
2031;SDS011;27625;50.422;7.944;2022-12-18T13:20:43;55.92;;;31.48;;
2031;SDS011;27625;50.422;7.944;2022-12-18T13:23:26;58.00;;;32.97;;
2031;SDS011;27625;50.422;7.944;2022-12-18T13:28:59;53.88;;;31.38;;
2031;SDS011;27625;50.422;7.944;2022-12-18T13:34:25;63.08;;;33.85;;
2031;SDS011;27625;50.422;7.944;2022-12-18T13:36:54;57.40;;;31.40;;
2031;SDS011;27625;50.422;7.944;2022-12-18T13:39:22;56.75;;;33.47;;
2031;SDS011;27625;50.422;7.944;2022-12-18T13:41:51;60.08;;;33.10;;
2031;SDS011;27625;50.422;7.944;2022-12-18T13:44:28;60.15;;;32.22;;
2031;SDS011;27625;50.422;7.944;2022-12-18T13:46:59;54.95;;;33.80;;
2031;SDS011;27625;50.422;7.944;2022-12-18T13:49:27;60.70;;;33.40;;
2031;SDS011;27625;50.422;7.944;2022-12-18T13:52:00;55.92;;;31.92;;
2031;SDS011;27625;50.422;7.944;2022-12-18T13:54:28;67.13;;;34.85;;
2031;SDS011;27625;50.422;7.944;2022-12-18T13:56:58;66.32;;;36.25;;
2031;SDS011;27625;50.422;7.944;2022-12-18T13:59:32;61.00;;;33.60;;
2031;SDS011;27625;50.422;7.944;2022-12-18T14:02:04;63.30;;;32.78;;
2031;SDS011;27625;50.422;7.944;2022-12-18T14:04:35;54.63;;;33.40;;
2031;SDS011;27625;50.422;7.944;2022-12-18T14:07:02;61.15;;;34.28;;
2031;SDS011;27625;50.422;7.944;2022-12-18T14:09:35;65.90;;;35.63;;
2031;SDS011;27625;50.422;7.944;2022-12-18T14:12:03;58.28;;;33.47;;
2031;SDS011;27625;50.422;7.944;2022-12-18T14:14:58;70.07;;;33.83;;
2031;SDS011;27625;50.422;7.944;2022-12-18T14:17:27;55.90;;;32.38;;
2031;SDS011;27625;50.422;7.944;2022-12-18T14:19:53;60.20;;;32.80;;
2031;SDS011;27625;50.422;7.944;2022-12-18T14:22:21;64.22;;;33.20;;
2031;SDS011;27625;50.422;7.944;2022-12-18T14:25:04;60.25;;;33.10;;
2031;SDS011;27625;50.422;7.944;2022-12-18T14:27:37;57.55;;;31.52;;
2031;SDS011;27625;50.422;7.944;2022-12-18T14:32:59;55.80;;;30.63;;
2031;SDS011;27625;50.422;7.944;2022-12-18T14:35:31;57.80;;;31.83;;
2031;SDS011;27625;50.422;7.944;2022-12-18T14:38:18;65.03;;;33.72;;
2031;SDS011;27625;50.422;7.944;2022-12-18T14:40:52;57.75;;;31.90;;
2031;SDS011;27625;50.422;7.944;2022-12-18T14:43:21;61.17;;;30.73;;
2031;SDS011;27625;50.422;7.944;2022-12-18T14:45:52;57.53;;;31.17;;
2031;SDS011;27625;50.422;7.944;2022-12-18T14:48:20;60.80;;;31.50;;
2031;SDS011;27625;50.422;7.944;2022-12-18T14:50:54;58.58;;;30.35;;
2031;SDS011;27625;50.422;7.944;2022-12-18T14:53:26;59.58;;;29.27;;
2031;SDS011;27625;50.422;7.944;2022-12-18T14:55:58;59.92;;;30.05;;
2031;SDS011;27625;50.422;7.944;2022-12-18T14:58:25;56.47;;;28.13;;
2031;SDS011;27625;50.422;7.944;2022-12-18T15:00:53;59.50;;;29.92;;
2031;SDS011;27625;50.422;7.944;2022-12-18T15:03:20;49.75;;;30.00;;
2031;SDS011;27625;50.422;7.944;2022-12-18T15:05:47;51.25;;;28.83;;
2031;SDS011;27625;50.422;7.944;2022-12-18T15:08:24;51.45;;;29.20;;
2031;SDS011;27625;50.422;7.944;2022-12-18T15:11:03;57.20;;;31.15;;
2031;SDS011;27625;50.422;7.944;2022-12-18T15:13:29;57.42;;;30.45;;
2031;SDS011;27625;50.422;7.944;2022-12-18T15:15:58;56.70;;;30.77;;
2031;SDS011;27625;50.422;7.944;2022-12-18T15:18:29;62.80;;;31.67;;
2031;SDS011;27625;50.422;7.944;2022-12-18T15:21:07;53.15;;;30.00;;
2031;SDS011;27625;50.422;7.944;2022-12-18T15:23:36;53.13;;;29.27;;